Time;durP1;ratioP1;P1;durP2;ratioP2;P2;SDS_P1;SDS_P2;PMS_P1;PMS_P2;Temp;Humidity;BMP_temperature;BMP_pressure;BME280_temperature;BME280_humidity;BME280_pressure;Samples;Min_cycle;Max_cycle;Signal;HPM_P1;HPM_P2
2023/07/20 02:01:37;;;;;;;2.50;2.00;;;;;;;;;;4540522;28;20068;-80
2023/07/20 02:04:03;;;;;;;2.35;1.80;;;;;;;;;;4266003;33;20072;-80
2023/07/20 02:06:30;;;;;;;2.78;2.55;;;;;;;;;;4266557;33;20049;-80
2023/07/20 02:08:56;;;;;;;4.75;2.50;;;;;;;;;;4267482;33;20045;-79
2023/07/20 02:11:22;;;;;;;2.62;2.10;;;;;;;;;;4267059;33;20046;-79
2023/07/20 02:13:48;;;;;;;5.07;2.50;;;;;;;;;;4266743;33;20058;-81
2023/07/20 02:16:14;;;;;;;14.77;2.70;;;;;;;;;;4265366;33;20068;-79
2023/07/20 02:18:41;;;;;;;6.43;2.83;;;;;;;;;;4251486;33;20126;-79
2023/07/20 02:21:07;;;;;;;9.55;3.10;;;;;;;;;;4250804;33;20073;-78
2023/07/20 02:23:33;;;;;;;7.82;3.35;;;;;;;;;;4250318;33;20054;-78
2023/07/20 02:25:59;;;;;;;4.47;2.60;;;;;;;;;;4250994;33;20042;-78
2023/07/20 02:28:26;;;;;;;4.93;3.33;;;;;;;;;;4249502;33;20510;-79
2023/07/20 02:30:53;;;;;;;8.07;2.80;;;;;;;;;;4249458;33;20187;-80
2023/07/20 02:33:20;;;;;;;7.43;2.78;;;;;;;;;;4250733;33;20068;-80
2023/07/20 02:35:52;;;;;;;5.62;3.33;;;;;;;;;;4251268;33;20045;-79
2023/07/20 02:38:19;;;;;;;6.28;4.12;;;;;;;;;;4249097;33;20457;-82
2023/07/20 02:40:45;;;;;;;11.68;6.15;;;;;;;;;;4250123;33;20058;-80
2023/07/20 02:43:11;;;;;;;12.55;4.78;;;;;;;;;;4236119;33;20055;-80
2023/07/20 02:45:40;;;;;;;10.82;5.15;;;;;;;;;;4236183;33;20412;-80
2023/07/20 02:48:07;;;;;;;7.93;3.28;;;;;;;;;;4221491;34;20192;-80
2023/07/20 02:50:35;;;;;;;10.07;3.80;;;;;;;;;;4232761;33;20042;-81
2023/07/20 02:53:01;;;;;;;3.35;2.95;;;;;;;;;;4234851;33;20055;-80
2023/07/20 02:55:27;;;;;;;7.72;3.08;;;;;;;;;;4236089;33;20046;-80
2023/07/20 02:57:54;;;;;;;7.18;3.40;;;;;;;;;;4235485;33;20478;-80
2023/07/20 03:00:19;;;;;;;9.85;2.90;;;;;;;;;;4235962;33;20038;-80
2023/07/20 03:02:52;;;;;;;4.65;2.92;;;;;;;;;;4205467;34;20059;-81
2023/07/20 03:05:18;;;;;;;;;;;;;;;;;;4193940;34;20052;-81
2023/07/20 03:07:44;;;;;;;8.10;2.80;;;;;;;;;;4165877;34;19935;-80
2023/07/20 03:10:10;;;;;;;7.93;2.90;;;;;;;;;;4165934;34;20036;-80
2023/07/20 03:12:36;;;;;;;6.18;3.20;;;;;;;;;;4166341;34;20060;-81
2023/07/20 03:15:03;;;;;;;17.33;3.97;;;;;;;;;;4163916;34;20182;-81
2023/07/20 03:17:29;;;;;;;10.25;3.08;;;;;;;;;;4139076;34;20063;-80
2023/07/20 03:19:56;;;;;;;4.62;3.78;;;;;;;;;;4139809;34;20045;-80
2023/07/20 03:22:24;;;;;;;12.10;3.25;;;;;;;;;;4139033;34;20071;-82
2023/07/20 03:24:51;;;;;;;7.75;3.00;;;;;;;;;;4139816;34;20041;-80
2023/07/20 03:27:18;;;;;;;7.80;3.15;;;;;;;;;;4137071;34;20053;-81
2023/07/20 03:29:44;;;;;;;5.20;3.20;;;;;;;;;;4140170;34;20822;-81
2023/07/20 03:32:11;;;;;;;5.68;2.90;;;;;;;;;;4126294;34;20474;-81
2023/07/20 03:34:37;;;;;;;4.10;2.58;;;;;;;;;;4148554;34;20114;-80
2023/07/20 03:37:04;;;;;;;7.15;3.65;;;;;;;;;;4162145;34;20051;-81
2023/07/20 03:39:30;;;;;;;6.05;3.37;;;;;;;;;;4188269;34;20032;-79
2023/07/20 03:41:58;;;;;;;8.45;3.20;;;;;;;;;;4193669;34;20398;-80
2023/07/20 03:44:23;;;;;;;5.82;2.97;;;;;;;;;;4193936;34;20063;-79
2023/07/20 03:46:50;;;;;;;7.57;3.58;;;;;;;;;;4194228;34;20046;-81
2023/07/20 03:49:16;;;;;;;11.45;3.22;;;;;;;;;;4214469;34;20477;-84
2023/07/20 03:51:42;;;;;;;5.53;3.40;;;;;;;;;;4192862;34;20040;-80
2023/07/20 03:54:08;;;;;;;4.75;2.70;;;;;;;;;;4194628;34;20020;-81
2023/07/20 03:56:35;;;;;;;5.93;3.22;;;;;;;;;;4193809;34;20059;-80
2023/07/20 03:59:01;;;;;;;8.00;3.62;;;;;;;;;;4218497;34;20027;-80
2023/07/20 04:01:28;;;;;;;5.28;3.10;;;;;;;;;;4221712;34;20086;-83
2023/07/20 04:03:54;;;;;;;4.05;3.62;;;;;;;;;;4221721;34;20031;-80
2023/07/20 04:06:20;;;;;;;8.32;3.58;;;;;;;;;;4221562;34;20081;-80
2023/07/20 04:08:47;;;;;;;3.60;3.10;;;;;;;;;;4222799;34;20046;-80
2023/07/20 04:11:13;;;;;;;7.00;3.53;;;;;;;;;;4221249;34;20092;-79
2023/07/20 04:13:39;;;;;;;6.60;3.37;;;;;;;;;;4193248;34;20114;-81
2023/07/20 04:16:06;;;;;;;5.35;3.30;;;;;;;;;;4181129;34;20051;-80
2023/07/20 04:18:32;;;;;;;7.65;3.53;;;;;;;;;;4182303;34;20040;-81
2023/07/20 04:20:58;;;;;;;6.20;3.45;;;;;;;;;;4182164;34;20052;-80
2023/07/20 04:23:24;;;;;;;7.87;3.40;;;;;;;;;;4172464;34;20151;-80
2023/07/20 04:25:52;;;;;;;4.57;3.45;;;;;;;;;;4180328;34;20077;-81
2023/07/20 04:28:18;;;;;;;8.00;3.53;;;;;;;;;;4201936;34;20274;-80
2023/07/20 04:30:45;;;;;;;5.55;3.42;;;;;;;;;;4206176;34;20052;-81
2023/07/20 04:33:11;;;;;;;4.60;3.55;;;;;;;;;;4189465;34;20085;-80
2023/07/20 04:35:46;;;;;;;8.68;3.08;;;;;;;;;;4197213;34;20063;-80
2023/07/20 04:38:17;;;;;;;3.58;3.22;;;;;;;;;;4199710;34;20051;-80
2023/07/20 04:40:44;;;;;;;4.80;3.20;;;;;;;;;;4198525;34;20036;-80
2023/07/20 04:43:11;;;;;;;4.47;3.10;;;;;;;;;;4184421;34;20381;-80
2023/07/20 04:45:38;;;;;;;7.82;3.40;;;;;;;;;;4187114;34;20435;-80
2023/07/20 04:48:06;;;;;;;4.87;2.65;;;;;;;;;;4188479;34;20032;-80
2023/07/20 04:50:33;;;;;;;5.03;3.45;;;;;;;;;;4176810;34;20048;-81
2023/07/20 04:53:01;;;;;;;4.78;3.17;;;;;;;;;;4164705;34;20182;-82
2023/07/20 04:55:28;;;;;;;8.10;4.25;;;;;;;;;;4163844;34;20129;-82
2023/07/20 04:57:54;;;;;;;7.03;4.07;;;;;;;;;;4164104;34;20058;-83
2023/07/20 05:00:22;;;;;;;11.68;4.93;;;;;;;;;;4168663;34;20158;-81
2023/07/20 05:02:48;;;;;;;6.72;3.97;;;;;;;;;;4164078;34;20112;-81
2023/07/20 05:05:15;;;;;;;11.20;3.65;;;;;;;;;;4166318;34;20056;-82
2023/07/20 05:07:41;;;;;;;5.22;3.35;;;;;;;;;;4154323;34;20048;-80
2023/07/20 05:10:07;;;;;;;6.82;3.78;;;;;;;;;;4152691;34;20190;-80
2023/07/20 05:12:34;;;;;;;7.57;3.42;;;;;;;;;;4153952;34;20086;-80
2023/07/20 05:15:00;;;;;;;5.43;3.80;;;;;;;;;;4154274;34;20044;-80
2023/07/20 05:17:33;;;;;;;6.12;3.65;;;;;;;;;;4154239;34;20033;-79
2023/07/20 05:20:00;;;;;;;17.23;3.78;;;;;;;;;;4164489;34;20112;-81
2023/07/20 05:22:27;;;;;;;7.62;4.53;;;;;;;;;;4128791;34;20111;-79
2023/07/20 05:24:54;;;;;;;13.07;5.22;;;;;;;;;;4139326;34;20066;-78
2023/07/20 05:27:21;;;;;;;5.20;3.78;;;;;;;;;;4141185;34;20444;-80
2023/07/20 05:29:47;;;;;;;9.68;4.15;;;;;;;;;;4151399;34;20101;-80
2023/07/20 05:32:13;;;;;;;11.43;4.55;;;;;;;;;;4164913;34;20538;-82
2023/07/20 05:34:40;;;;;;;6.97;3.40;;;;;;;;;;4179952;34;20075;-79
2023/07/20 05:37:06;;;;;;;5.70;4.05;;;;;;;;;;4181138;34;20047;-80
2023/07/20 05:39:32;;;;;;;6.32;3.60;;;;;;;;;;4180719;34;20056;-81
2023/07/20 05:41:58;;;;;;;10.25;3.87;;;;;;;;;;4180585;34;20205;-79
2023/07/20 05:44:25;;;;;;;7.45;3.72;;;;;;;;;;4178520;34;20043;-80
2023/07/20 05:46:51;;;;;;;8.60;5.05;;;;;;;;;;4180641;34;20348;-80
2023/07/20 05:49:18;;;;;;;8.02;4.18;;;;;;;;;;4214773;34;20068;-79
2023/07/20 05:51:45;;;;;;;13.32;4.05;;;;;;;;;;4223005;34;20063;-79
2023/07/20 05:54:11;;;;;;;4.10;2.87;;;;;;;;;;4233238;33;20822;-81
2023/07/20 05:56:37;;;;;;;4.47;2.87;;;;;;;;;;4222933;33;20595;-80
2023/07/20 05:59:03;;;;;;;7.45;3.62;;;;;;;;;;4222496;34;20080;-80
2023/07/20 06:01:29;;;;;;;5.80;3.08;;;;;;;;;;4207459;34;20044;-79
2023/07/20 06:03:56;;;;;;;11.80;3.95;;;;;;;;;;4208106;34;20061;-80
2023/07/20 06:06:22;;;;;;;5.80;3.30;;;;;;;;;;4207783;34;20427;-79
2023/07/20 06:08:48;;;;;;;8.35;2.87;;;;;;;;;;4192484;34;20074;-79
2023/07/20 06:11:15;;;;;;;6.37;3.40;;;;;;;;;;4183337;34;20059;-80
2023/07/20 06:13:43;;;;;;;11.27;3.65;;;;;;;;;;4167231;34;20040;-79
2023/07/20 06:16:09;;;;;;;5.40;3.42;;;;;;;;;;4176967;34;20055;-78
2023/07/20 06:18:35;;;;;;;8.43;3.42;;;;;;;;;;4180921;34;20052;-80
2023/07/20 06:21:01;;;;;;;8.15;3.22;;;;;;;;;;4180058;34;20048;-81
2023/07/20 06:23:27;;;;;;;4.53;3.47;;;;;;;;;;4154037;34;20109;-80
2023/07/20 06:25:54;;;;;;;4.30;2.90;;;;;;;;;;4152981;34;20041;-79
2023/07/20 06:28:20;;;;;;;5.93;2.83;;;;;;;;;;4139483;34;20053;-79
2023/07/20 06:30:46;;;;;;;5.82;3.05;;;;;;;;;;4121543;34;20101;-78
2023/07/20 06:33:13;;;;;;;4.78;3.30;;;;;;;;;;4131750;34;20053;-79
2023/07/20 06:35:41;;;;;;;5.47;3.10;;;;;;;;;;4139665;34;20128;-79
2023/07/20 06:38:08;;;;;;;6.22;3.12;;;;;;;;;;4139539;34;20092;-78
2023/07/20 06:40:34;;;;;;;5.95;3.30;;;;;;;;;;4139077;34;20510;-78
2023/07/20 06:43:00;;;;;;;13.85;3.37;;;;;;;;;;4150282;34;20512;-78
2023/07/20 06:45:26;;;;;;;4.35;3.33;;;;;;;;;;4161754;34;20053;-79
2023/07/20 06:47:53;;;;;;;13.88;4.93;;;;;;;;;;4166167;34;21148;-79
2023/07/20 06:50:19;;;;;;;5.50;3.10;;;;;;;;;;4164184;34;20056;-80
2023/07/20 06:52:47;;;;;;;9.43;3.97;;;;;;;;;;4145183;34;20073;-78
2023/07/20 06:55:14;;;;;;;6.07;2.72;;;;;;;;;;4144346;34;20049;-88
2023/07/20 06:57:40;;;;;;;4.20;3.08;;;;;;;;;;4158195;34;20048;-78
2023/07/20 07:00:06;;;;;;;5.70;2.90;;;;;;;;;;4166178;34;20409;-78
2023/07/20 07:02:34;;;;;;;4.78;3.00;;;;;;;;;;4201158;34;20051;-78
2023/07/20 07:05:01;;;;;;;6.55;3.75;;;;;;;;;;4207231;34;20051;-79
2023/07/20 07:07:27;;;;;;;11.38;3.00;;;;;;;;;;4205145;34;20087;-80
2023/07/20 07:09:54;;;;;;;9.23;3.58;;;;;;;;;;4208495;34;20525;-78
2023/07/20 07:12:20;;;;;;;8.65;3.40;;;;;;;;;;4207311;34;20120;-78
2023/07/20 07:14:46;;;;;;;5.57;3.47;;;;;;;;;;4205984;34;20031;-77
2023/07/20 07:17:13;;;;;;;9.93;3.60;;;;;;;;;;4201518;34;20218;-78
2023/07/20 07:19:40;;;;;;;6.57;3.83;;;;;;;;;;4191375;34;20370;-82
2023/07/20 07:22:06;;;;;;;9.18;3.28;;;;;;;;;;4204216;34;20058;-79
2023/07/20 07:24:35;;;;;;;8.05;3.58;;;;;;;;;;4207114;34;20071;-78
2023/07/20 07:27:03;;;;;;;15.15;4.43;;;;;;;;;;4205013;34;20074;-81
2023/07/20 07:29:29;;;;;;;6.37;3.87;;;;;;;;;;4208303;34;20024;-79
2023/07/20 07:31:56;;;;;;;4.95;3.22;;;;;;;;;;4219088;34;20080;-81
2023/07/20 07:34:22;;;;;;;4.93;2.95;;;;;;;;;;4221432;34;20051;-79
2023/07/20 07:36:48;;;;;;;5.70;3.47;;;;;;;;;;4221365;34;20046;-78
2023/07/20 07:39:14;;;;;;;7.65;3.67;;;;;;;;;;4222388;34;20089;-79
2023/07/20 07:41:41;;;;;;;8.20;3.33;;;;;;;;;;4207220;34;20073;-78
2023/07/20 07:44:07;;;;;;;6.30;3.40;;;;;;;;;;4174102;34;20989;-81
2023/07/20 07:46:33;;;;;;;6.68;3.35;;;;;;;;;;4179171;34;20081;-79
2023/07/20 07:48:59;;;;;;;4.95;3.03;;;;;;;;;;4179960;34;20052;-79
2023/07/20 07:51:27;;;;;;;4.57;2.80;;;;;;;;;;4179059;34;20054;-78
2023/07/20 07:53:53;;;;;;;5.93;3.70;;;;;;;;;;4165681;34;20074;-82
2023/07/20 07:56:22;;;;;;;5.25;2.87;;;;;;;;;;4165557;34;20048;-78
2023/07/20 07:58:48;;;;;;;5.53;3.25;;;;;;;;;;4166457;34;20040;-79
2023/07/20 08:01:15;;;;;;;4.68;3.33;;;;;;;;;;4165348;34;20063;-79
2023/07/20 08:03:48;;;;;;;3.12;2.70;;;;;;;;;;4166064;34;20074;-79
2023/07/20 08:06:14;;;;;;;4.20;2.58;;;;;;;;;;4163874;34;20086;-79
2023/07/20 08:08:40;;;;;;;8.85;2.67;;;;;;;;;;4163891;34;20192;-80
2023/07/20 08:11:07;;;;;;;4.18;3.00;;;;;;;;;;4165676;34;20109;-79
2023/07/20 08:13:33;;;;;;;5.03;3.05;;;;;;;;;;4199666;34;20077;-80
2023/07/20 08:15:59;;;;;;;3.50;3.20;;;;;;;;;;4218092;34;20059;-81
2023/07/20 08:18:25;;;;;;;4.32;3.87;;;;;;;;;;4229375;33;20105;-80
2023/07/20 08:20:52;;;;;;;5.03;4.10;;;;;;;;;;4234599;33;20065;-79
2023/07/20 08:23:18;;;;;;;5.70;3.78;;;;;;;;;;4233907;33;20500;-78
2023/07/20 08:25:44;;;;;;;7.95;5.37;;;;;;;;;;4229339;33;20055;-78
2023/07/20 08:28:11;;;;;;;31.48;5.00;;;;;;;;;;4226992;33;20085;-82
2023/07/20 08:30:44;;;;;;;4.53;4.03;;;;;;;;;;4227930;33;20062;-79
2023/07/20 08:33:13;;;;;;;5.60;3.80;;;;;;;;;;4227278;33;20035;-79
2023/07/20 08:35:40;;;;;;;6.00;4.50;;;;;;;;;;4227688;33;20071;-80
2023/07/20 08:38:07;;;;;;;9.98;4.43;;;;;;;;;;4212338;34;20526;-79
2023/07/20 08:40:42;;;;;;;8.60;4.35;;;;;;;;;;4203925;34;20476;-77
2023/07/20 08:43:08;;;;;;;4.43;3.42;;;;;;;;;;4195453;34;20065;-76
2023/07/20 08:45:36;;;;;;;6.70;4.60;;;;;;;;;;4217645;34;20379;-75
2023/07/20 08:48:03;;;;;;;5.97;3.47;;;;;;;;;;4206003;34;20523;-76
2023/07/20 08:50:30;;;;;;;7.90;3.50;;;;;;;;;;4192809;34;20047;-75
2023/07/20 08:52:58;;;;;;;7.75;3.30;;;;;;;;;;4193761;34;20102;-75
2023/07/20 08:55:28;;;;;;;6.85;2.72;;;;;;;;;;4217426;33;20053;-74
2023/07/20 08:57:55;;;;;;;12.60;2.97;;;;;;;;;;4226014;33;20421;-75
2023/07/20 09:00:22;;;;;;;4.55;2.55;;;;;;;;;;4206676;34;20038;-75
2023/07/20 09:02:54;;;;;;;5.03;3.87;;;;;;;;;;4205566;34;20059;-75
2023/07/20 09:05:22;;;;;;;9.30;3.37;;;;;;;;;;4195246;34;20069;-75
2023/07/20 09:07:49;;;;;;;5.75;2.83;;;;;;;;;;4191105;34;20055;-77
2023/07/20 09:10:16;;;;;;;6.07;2.10;;;;;;;;;;4194312;34;20132;-76
2023/07/20 09:12:43;;;;;;;4.65;3.05;;;;;;;;;;4194031;34;20023;-78
2023/07/20 09:15:11;;;;;;;1.70;1.60;;;;;;;;;;4204014;33;20055;-76
2023/07/20 09:17:37;;;;;;;2.47;1.80;;;;;;;;;;4224474;33;20100;-76
2023/07/20 09:20:10;;;;;;;2.47;2.28;;;;;;;;;;4217690;33;20070;-76
2023/07/20 09:22:40;;;;;;;3.03;1.90;;;;;;;;;;4205697;34;20073;-76
2023/07/20 09:25:10;;;;;;;14.05;2.15;;;;;;;;;;4219125;33;20090;-77
2023/07/20 09:27:40;;;;;;;5.78;2.72;;;;;;;;;;4195055;34;20078;-75
2023/07/20 09:30:14;;;;;;;3.67;2.40;;;;;;;;;;4201374;34;20061;-76
2023/07/20 09:32:43;;;;;;;1.98;1.87;;;;;;;;;;4207109;34;20087;-79
2023/07/20 09:35:13;;;;;;;2.70;2.20;;;;;;;;;;4207886;34;20055;-76
2023/07/20 09:38:08;;;;;;;11.75;2.12;;;;;;;;;;4218523;34;20817;-74
2023/07/20 09:40:39;;;;;;;5.65;1.92;;;;;;;;;;4207902;34;20055;-75
2023/07/20 09:43:09;;;;;;;10.73;2.37;;;;;;;;;;4235738;33;20561;-75
2023/07/20 09:45:39;;;;;;;17.83;2.72;;;;;;;;;;4217044;34;20064;-75
2023/07/20 09:48:06;;;;;;;2.58;1.62;;;;;;;;;;4200289;34;20073;-76
2023/07/20 09:50:33;;;;;;;4.20;2.75;;;;;;;;;;4216175;34;20213;-75
2023/07/20 09:53:02;;;;;;;3.17;2.55;;;;;;;;;;4192279;34;20031;-74
2023/07/20 09:55:29;;;;;;;2.97;1.83;;;;;;;;;;4181421;34;20886;-76
2023/07/20 09:57:56;;;;;;;8.25;2.30;;;;;;;;;;4192651;34;20032;-75
2023/07/20 10:00:23;;;;;;;4.28;2.45;;;;;;;;;;4207908;33;20086;-75
2023/07/20 10:02:51;;;;;;;3.45;1.55;;;;;;;;;;4222139;33;20140;-73
2023/07/20 10:05:18;;;;;;;3.22;1.92;;;;;;;;;;4207967;34;20063;-76
2023/07/20 10:07:47;;;;;;;5.97;1.40;;;;;;;;;;4232073;33;20023;-76
2023/07/20 10:10:14;;;;;;;8.60;1.75;;;;;;;;;;4202718;33;20062;-77
2023/07/20 10:12:41;;;;;;;2.60;1.73;;;;;;;;;;4212846;34;20047;-75
2023/07/20 10:15:12;;;;;;;3.28;1.80;;;;;;;;;;4221658;33;20729;-75
2023/07/20 10:17:44;;;;;;;1.85;1.73;;;;;;;;;;4206555;34;20152;-75
2023/07/20 10:20:11;;;;;;;1.95;1.83;;;;;;;;;;4195044;34;20061;-76
2023/07/20 10:22:38;;;;;;;4.43;1.55;;;;;;;;;;4191952;34;20128;-76
2023/07/20 10:25:06;;;;;;;1.92;1.83;;;;;;;;;;4194753;34;20077;-77
2023/07/20 10:27:33;;;;;;;1.85;1.73;;;;;;;;;;4206961;34;20047;-77
2023/07/20 10:30:00;;;;;;;4.57;2.08;;;;;;;;;;4204475;34;20095;-77
2023/07/20 10:32:26;;;;;;;4.68;1.65;;;;;;;;;;4195025;34;20032;-78
2023/07/20 10:34:55;;;;;;;5.03;1.75;;;;;;;;;;4204873;34;20048;-77
2023/07/20 10:37:40;;;;;;;1.58;1.48;;;;;;;;;;4175486;34;20038;-76
2023/07/20 10:40:27;;;;;;;1.60;1.50;;;;;;;;;;4166195;34;20097;-75
2023/07/20 10:43:12;;;;;;;9.32;1.98;;;;;;;;;;4165280;34;20070;-75
2023/07/20 10:45:38;;;;;;;1.87;1.75;;;;;;;;;;4165429;34;20050;-75
2023/07/20 10:48:21;;;;;;;2.00;1.65;;;;;;;;;;4166513;34;20058;-76
2023/07/20 10:51:07;;;;;;;3.78;1.77;;;;;;;;;;4192735;34;20419;-75
2023/07/20 10:53:33;;;;;;;7.40;1.73;;;;;;;;;;4179285;34;20035;-77
2023/07/20 10:56:07;;;;;;;1.27;1.27;;;;;;;;;;4179029;34;21022;-76
2023/07/20 10:58:34;;;;;;;2.17;1.50;;;;;;;;;;4167574;34;20057;-75
2023/07/20 11:01:01;;;;;;;1.02;1.00;;;;;;;;;;4318193;28;20465;-74
2023/07/20 11:03:31;;;;;;;1.10;0.93;;;;;;;;;;4220342;34;20068;-74
2023/07/20 11:05:58;;;;;;;1.33;1.23;;;;;;;;;;4225414;34;20141;-76
2023/07/20 11:08:38;;;;;;;0.70;0.70;;;;;;;;;;4216524;34;20035;-74
2023/07/20 11:11:23;;;;;;;1.05;1.05;;;;;;;;;;4196413;34;20397;-75
2023/07/20 11:13:56;;;;;;;4.90;1.15;;;;;;;;;;4201616;34;20446;-75
2023/07/20 11:16:36;;;;;;;1.77;1.30;;;;;;;;;;4181829;34;20069;-75
2023/07/20 11:19:03;;;;;;;5.40;1.20;;;;;;;;;;4191080;34;20819;-76
2023/07/20 11:21:37;;;;;;;2.05;1.25;;;;;;;;;;4179029;34;20253;-75
2023/07/20 11:24:05;;;;;;;1.20;1.20;;;;;;;;;;4183174;34;20378;-75
2023/07/20 11:26:39;;;;;;;1.65;1.17;;;;;;;;;;4181662;34;20061;-75
2023/07/20 11:29:05;;;;;;;1.23;1.05;;;;;;;;;;4183901;34;20419;-74
2023/07/20 11:31:34;;;;;;;1.70;1.30;;;;;;;;;;4197862;34;20052;-74
2023/07/20 11:34:01;;;;;;;5.72;1.42;;;;;;;;;;4179404;34;20036;-74
2023/07/20 11:36:27;;;;;;;1.95;1.60;;;;;;;;;;4168058;34;20052;-73
2023/07/20 11:38:54;;;;;;;1.85;1.48;;;;;;;;;;4176101;34;20547;-75
2023/07/20 11:41:21;;;;;;;6.22;2.15;;;;;;;;;;4150557;34;20064;-77
2023/07/20 11:43:47;;;;;;;3.72;1.75;;;;;;;;;;4152658;34;20048;-76
2023/07/20 11:46:15;;;;;;;7.20;2.55;;;;;;;;;;4163458;34;20112;-77
2023/07/20 11:48:42;;;;;;;5.53;2.97;;;;;;;;;;4163759;34;20089;-76
2023/07/20 11:51:16;;;;;;;4.32;2.25;;;;;;;;;;4161962;34;20052;-76
2023/07/20 11:53:46;;;;;;;6.95;2.10;;;;;;;;;;4163204;34;20546;-76
2023/07/20 11:56:12;;;;;;;2.50;1.75;;;;;;;;;;4140836;34;20158;-76
2023/07/20 11:58:42;;;;;;;2.62;2.10;;;;;;;;;;4122438;34;20081;-76
2023/07/20 12:01:08;;;;;;;2.12;1.90;;;;;;;;;;4122702;34;20240;-75
2023/07/20 12:03:35;;;;;;;5.90;2.30;;;;;;;;;;4126547;34;20050;-75
2023/07/20 12:06:10;;;;;;;2.92;2.05;;;;;;;;;;4136421;34;20193;-74
2023/07/20 12:08:41;;;;;;;10.85;2.45;;;;;;;;;;4136945;34;20440;-74
2023/07/20 12:11:08;;;;;;;3.40;2.80;;;;;;;;;;4150565;34;20072;-75
2023/07/20 12:13:36;;;;;;;7.10;2.35;;;;;;;;;;4154616;34;20204;-75
2023/07/20 12:16:10;;;;;;;2.83;2.45;;;;;;;;;;4178776;34;20175;-75
2023/07/20 12:18:37;;;;;;;3.12;2.80;;;;;;;;;;4167893;34;20032;-76
2023/07/20 12:21:05;;;;;;;3.83;2.60;;;;;;;;;;4165396;34;20456;-75
2023/07/20 12:23:38;;;;;;;3.35;2.17;;;;;;;;;;4167866;34;20135;-75
2023/07/20 12:26:09;;;;;;;3.30;1.87;;;;;;;;;;4178712;34;20058;-74
2023/07/20 12:28:41;;;;;;;3.15;2.72;;;;;;;;;;4179908;34;20058;-75
2023/07/20 12:31:09;;;;;;;7.15;4.65;;;;;;;;;;4216288;33;20081;-76
2023/07/20 12:33:36;;;;;;;2.47;2.30;;;;;;;;;;4191924;34;20061;-75
2023/07/20 12:36:03;;;;;;;3.08;2.47;;;;;;;;;;4169215;34;20203;-75
2023/07/20 12:38:30;;;;;;;5.03;2.30;;;;;;;;;;4170155;34;20059;-74
2023/07/20 12:40:59;;;;;;;2.33;2.05;;;;;;;;;;4168236;34;20435;-74
2023/07/20 12:43:26;;;;;;;4.15;3.08;;;;;;;;;;4183462;34;20071;-75
2023/07/20 12:45:53;;;;;;;2.78;2.28;;;;;;;;;;4194627;34;20059;-75
2023/07/20 12:48:19;;;;;;;3.67;2.30;;;;;;;;;;4208755;34;20373;-75
2023/07/20 12:50:45;;;;;;;6.90;3.40;;;;;;;;;;4195355;34;20067;-75
2023/07/20 12:53:12;;;;;;;3.10;2.50;;;;;;;;;;4197426;34;20956;-74
2023/07/20 12:55:39;;;;;;;3.92;2.25;;;;;;;;;;4201507;34;20378;-75
2023/07/20 12:58:13;;;;;;;2.12;2.00;;;;;;;;;;4183067;34;20048;-74
2023/07/20 13:00:40;;;;;;;1.70;1.12;;;;;;;;;;4181951;34;20085;-77
2023/07/20 13:03:12;;;;;;;1.70;1.40;;;;;;;;;;4194782;34;20095;-74
2023/07/20 13:05:39;;;;;;;2.65;1.10;;;;;;;;;;4196092;34;20605;-76
2023/07/20 13:08:05;;;;;;;3.10;1.02;;;;;;;;;;4208630;34;20088;-75
2023/07/20 13:10:32;;;;;;;1.95;1.20;;;;;;;;;;4196297;34;20827;-74
2023/07/20 13:12:59;;;;;;;1.45;1.35;;;;;;;;;;4208207;34;20093;-74
2023/07/20 13:15:33;;;;;;;1.85;1.75;;;;;;;;;;4209297;34;20061;-73
2023/07/20 13:18:00;;;;;;;6.40;1.87;;;;;;;;;;4208743;34;20415;-74
2023/07/20 13:20:28;;;;;;;3.40;1.25;;;;;;;;;;4170990;34;20039;-77
2023/07/20 13:22:54;;;;;;;3.05;1.30;;;;;;;;;;4207075;34;20067;-75
2023/07/20 13:25:20;;;;;;;2.78;2.05;;;;;;;;;;4195537;34;20396;-75
2023/07/20 13:27:47;;;;;;;2.40;1.50;;;;;;;;;;4208316;34;20361;-75
2023/07/20 13:30:16;;;;;;;2.53;1.70;;;;;;;;;;4221460;33;20062;-74
2023/07/20 13:32:45;;;;;;;1.60;1.50;;;;;;;;;;4235220;33;20065;-75
2023/07/20 13:35:12;;;;;;;1.58;1.48;;;;;;;;;;4236388;33;20058;-74
2023/07/20 13:37:38;;;;;;;2.87;1.35;;;;;;;;;;4248219;33;20027;-75
2023/07/20 13:40:05;;;;;;;8.18;1.70;;;;;;;;;;4224812;33;20054;-76
2023/07/20 13:42:33;;;;;;;3.92;1.92;;;;;;;;;;4223129;33;20035;-77
2023/07/20 13:44:59;;;;;;;2.37;1.42;;;;;;;;;;4224939;33;20433;-75
2023/07/20 13:47:26;;;;;;;1.62;1.52;;;;;;;;;;4212609;33;20215;-75
2023/07/20 13:49:53;;;;;;;3.03;1.50;;;;;;;;;;4236198;33;20046;-75
2023/07/20 13:52:19;;;;;;;9.50;1.90;;;;;;;;;;4211896;33;20062;-74
2023/07/20 13:54:45;;;;;;;1.80;1.70;;;;;;;;;;4208371;34;20042;-74
2023/07/20 13:57:12;;;;;;;2.53;1.40;;;;;;;;;;4203499;34;20118;-75
2023/07/20 13:59:38;;;;;;;4.05;2.15;;;;;;;;;;4182631;34;20109;-74
2023/07/20 14:02:05;;;;;;;1.90;1.80;;;;;;;;;;4182239;34;20043;-74
2023/07/20 14:04:32;;;;;;;3.12;2.03;;;;;;;;;;4178343;34;20488;-77
2023/07/20 14:06:58;;;;;;;2.17;1.23;;;;;;;;;;4193638;34;20075;-76
2023/07/20 14:09:24;;;;;;;1.55;1.45;;;;;;;;;;4193981;34;20450;-74
2023/07/20 14:11:51;;;;;;;2.72;1.20;;;;;;;;;;4193792;34;20036;-74
2023/07/20 14:14:17;;;;;;;1.77;1.60;;;;;;;;;;4179548;34;20047;-76
2023/07/20 14:16:43;;;;;;;1.77;1.67;;;;;;;;;;4179074;34;20071;-75
2023/07/20 14:19:10;;;;;;;3.40;1.42;;;;;;;;;;4167955;34;20044;-74
2023/07/20 14:21:36;;;;;;;1.90;1.30;;;;;;;;;;4179810;34;20431;-75
2023/07/20 14:24:03;;;;;;;1.12;1.00;;;;;;;;;;4164810;34;20069;-74
2023/07/20 14:26:30;;;;;;;2.30;0.82;;;;;;;;;;4182916;34;20048;-74
2023/07/20 14:28:56;;;;;;;2.90;1.00;;;;;;;;;;4166655;34;20044;-74
2023/07/20 14:31:23;;;;;;;2.35;1.10;;;;;;;;;;4152044;34;20041;-74
2023/07/20 14:33:49;;;;;;;3.22;1.08;;;;;;;;;;4152418;34;20520;-75
2023/07/20 14:36:15;;;;;;;2.25;0.90;;;;;;;;;;4142599;34;20074;-75
2023/07/20 14:38:42;;;;;;;1.27;0.98;;;;;;;;;;4138991;34;20427;-75
2023/07/20 14:41:09;;;;;;;1.02;0.80;;;;;;;;;;4138577;34;20038;-75
2023/07/20 14:43:36;;;;;;;1.80;0.73;;;;;;;;;;4138817;34;20052;-76
2023/07/20 14:46:02;;;;;;;0.73;0.73;;;;;;;;;;4138630;34;20059;-75
2023/07/20 14:48:29;;;;;;;1.00;1.00;;;;;;;;;;4125205;34;20419;-76
2023/07/20 14:50:55;;;;;;;2.62;0.90;;;;;;;;;;4132991;34;20087;-75
2023/07/20 14:53:21;;;;;;;3.42;0.90;;;;;;;;;;4124581;34;20074;-75
2023/07/20 14:55:48;;;;;;;1.10;1.10;;;;;;;;;;4111834;34;20073;-74
2023/07/20 14:58:14;;;;;;;1.55;0.77;;;;;;;;;;4110585;34;20053;-75
2023/07/20 15:00:40;;;;;;;0.65;0.65;;;;;;;;;;4163201;34;20054;-76
2023/07/20 15:03:09;;;;;;;1.75;0.60;;;;;;;;;;4184460;34;20275;-75
2023/07/20 15:05:37;;;;;;;0.80;0.80;;;;;;;;;;4174385;34;20036;-75
2023/07/20 15:08:05;;;;;;;0.70;0.70;;;;;;;;;;4164238;34;20040;-76
2023/07/20 15:10:32;;;;;;;0.70;0.70;;;;;;;;;;4152830;34;20473;-78
2023/07/20 15:12:59;;;;;;;2.53;1.12;;;;;;;;;;4163561;34;20050;-75
2023/07/20 15:15:26;;;;;;;0.98;0.80;;;;;;;;;;4176706;34;20040;-76
2023/07/20 15:17:54;;;;;;;0.68;0.68;;;;;;;;;;4151761;34;20440;-75
2023/07/20 15:20:20;;;;;;;0.70;0.70;;;;;;;;;;4136756;34;20071;-76
2023/07/20 15:22:46;;;;;;;0.98;0.98;;;;;;;;;;4123054;34;20060;-75
2023/07/20 15:25:13;;;;;;;0.70;0.70;;;;;;;;;;4123436;34;20081;-76
2023/07/20 15:27:41;;;;;;;3.10;0.88;;;;;;;;;;4136787;34;20075;-76
2023/07/20 15:30:08;;;;;;;1.25;1.15;;;;;;;;;;4136338;34;20534;-77
2023/07/20 15:32:34;;;;;;;0.73;0.70;;;;;;;;;;4121880;34;20070;-77
2023/07/20 15:35:02;;;;;;;1.00;1.00;;;;;;;;;;4124877;34;20067;-76
2023/07/20 15:37:29;;;;;;;2.15;0.80;;;;;;;;;;4098438;35;20083;-76
2023/07/20 15:39:55;;;;;;;4.97;1.40;;;;;;;;;;4090922;34;20599;-75
2023/07/20 15:42:22;;;;;;;1.05;1.05;;;;;;;;;;4084679;35;20466;-76
2023/07/20 15:44:48;;;;;;;2.15;1.42;;;;;;;;;;4074660;35;20051;-76
2023/07/20 15:47:15;;;;;;;0.90;0.90;;;;;;;;;;4074071;35;20047;-76
2023/07/20 15:49:42;;;;;;;1.27;0.95;;;;;;;;;;4100863;34;20042;-77
2023/07/20 15:52:11;;;;;;;2.72;0.98;;;;;;;;;;4089857;34;20062;-76
2023/07/20 15:54:37;;;;;;;2.83;2.62;;;;;;;;;;4098922;34;20105;-76
2023/07/20 15:57:04;;;;;;;1.85;1.33;;;;;;;;;;4085392;34;20127;-74
2023/07/20 15:59:30;;;;;;;1.77;0.93;;;;;;;;;;4077364;35;20077;-75
2023/07/20 16:01:57;;;;;;;0.85;0.85;;;;;;;;;;4072172;35;20084;-75
2023/07/20 16:04:23;;;;;;;3.50;1.40;;;;;;;;;;4066262;35;20089;-76
2023/07/20 16:06:50;;;;;;;1.40;1.20;;;;;;;;;;4057537;35;20076;-78
2023/07/20 16:09:16;;;;;;;1.00;1.00;;;;;;;;;;4075748;35;20092;-76
2023/07/20 16:11:43;;;;;;;0.80;0.80;;;;;;;;;;4099734;34;20511;-75
2023/07/20 16:14:09;;;;;;;1.60;1.23;;;;;;;;;;4101859;34;20072;-75
2023/07/20 16:16:35;;;;;;;2.12;1.33;;;;;;;;;;4099209;34;20855;-74
2023/07/20 16:19:02;;;;;;;2.85;1.00;;;;;;;;;;4103396;34;20038;-78
2023/07/20 16:21:28;;;;;;;0.60;0.60;;;;;;;;;;4134762;34;20477;-76
2023/07/20 16:23:55;;;;;;;0.80;0.80;;;;;;;;;;4140901;34;20037;-75
2023/07/20 16:26:21;;;;;;;1.05;0.93;;;;;;;;;;4107047;34;20058;-77
2023/07/20 16:28:47;;;;;;;4.50;0.90;;;;;;;;;;4106940;34;20417;-75
2023/07/20 16:31:14;;;;;;;1.00;0.90;;;;;;;;;;4100330;34;20053;-78
2023/07/20 16:33:42;;;;;;;1.00;1.00;;;;;;;;;;4124026;34;20376;-75
2023/07/20 16:36:11;;;;;;;2.17;1.02;;;;;;;;;;4140231;34;20888;-75
2023/07/20 16:38:38;;;;;;;0.98;0.90;;;;;;;;;;4126425;34;20502;-74
2023/07/20 16:41:06;;;;;;;4.32;1.92;;;;;;;;;;4123610;34;20070;-75
2023/07/20 16:43:36;;;;;;;2.40;1.37;;;;;;;;;;4125219;34;20045;-77
2023/07/20 16:46:04;;;;;;;1.10;1.10;;;;;;;;;;4125802;34;20061;-77